37 Rocks — ZM3003 — position and weather

sailwx.info

Track history (hours):
 
Tides and Currents Weather Stations Pressure Air Temp Water Temp Dewpoint Dewpoint Depression Visibility Wind Speed Wind Dir Waves Ship Positions

37 Rocks

Last reported at 2016-Aug-10 07:33 UTC. Time now 2016-Sep-26 00:19 UTC.
Position N 37°03' E 025°03'.
Warning: this ship's position is 46 days out of date.

Length 17 m.

Type: Sailing vessel. MMSI: 512003230.

Date/timePositionNaut miles runAvg speedWind from/ knotsBaromVisibWave heightAir tempDewpointWater temp
2016-Aug-10 07:33N 37°03' E 025°03'  
2016-Aug-05 19:24N 37°03' E 025°06'1 0.2
2016-Aug-05 14:32N 37°02' E 025°05'12 0.2
2016-Aug-03 11:19N 37°13' E 025°12'6 7.7
2016-Aug-03 10:33N 37°18' E 025°16'7 7.4
2016-Aug-03 09:33N 37°24' E 025°21'0 0.0
2016-Aug-02 09:30N 37°24' E 025°21'0 0.0
2016-Aug-02 08:27N 37°24' E 025°21'0 0.0
2016-Aug-02 07:33N 37°24' E 025°21'0 0.0
2016-Aug-02 06:33N 37°24' E 025°21'0 0.0
2016-Aug-02 04:33N 37°24' E 025°21'0 0.0
2016-Aug-02 03:33N 37°24' E 025°21'0 0.0
2016-Aug-01 16:33N 37°25' E 025°22'6 5.9
2016-Aug-01 15:32N 37°22' E 025°15'15 7.3
2016-Aug-01 13:31N 37°21' E 024°56'7 7.6
2016-Aug-01 12:32N 37°20' E 024°47'  
Track history (hours):
 
Tides and Currents Weather Stations Pressure Air Temp Water Temp Dewpoint Dewpoint Depression Visibility Wind Speed Wind Dir Waves Ship Positions

37 Rocks

Last reported at 2016-Aug-10 07:33 UTC. Time now 2016-Sep-26 00:19 UTC.
Position N 37°03' E 025°03'.
Warning: this ship's position is 46 days out of date.

Length 17 m.

Type: Sailing vessel. MMSI: 512003230.

Date/timePositionNaut miles runAvg speedWind from/ knotsBaromVisibWave heightAir tempDewpointWater temp
2016-Aug-10 07:33N 37°03' E 025°03'  
2016-Aug-05 19:24N 37°03' E 025°06'1 0.2
2016-Aug-05 14:32N 37°02' E 025°05'12 0.2
2016-Aug-03 11:19N 37°13' E 025°12'6 7.7
2016-Aug-03 10:33N 37°18' E 025°16'7 7.4
2016-Aug-03 09:33N 37°24' E 025°21'0 0.0
2016-Aug-02 09:30N 37°24' E 025°21'0 0.0
2016-Aug-02 08:27N 37°24' E 025°21'0 0.0
2016-Aug-02 07:33N 37°24' E 025°21'0 0.0
2016-Aug-02 06:33N 37°24' E 025°21'0 0.0
2016-Aug-02 04:33N 37°24' E 025°21'0 0.0
2016-Aug-02 03:33N 37°24' E 025°21'0 0.0
2016-Aug-01 16:33N 37°25' E 025°22'6 5.9
2016-Aug-01 15:32N 37°22' E 025°15'15 7.3
2016-Aug-01 13:31N 37°21' E 024°56'7 7.6
2016-Aug-01 12:32N 37°20' E 024°47'  

Dump ship's entire track history